sensor_id;sensor_type;location;lat;lon;timestamp;pressure;altitude;pressure_sealevel;temperature
13304;BMP280;6720;51.958;4.540;2023-03-01T00:00:25;103073.75;;;2.94
13304;BMP280;6720;51.958;4.540;2023-03-01T00:02:51;103078.03;;;2.93
13304;BMP280;6720;51.958;4.540;2023-03-01T00:05:16;103048.75;;;2.77
13304;BMP280;6720;51.958;4.540;2023-03-01T00:07:41;103074.03;;;2.82
13304;BMP280;6720;51.958;4.540;2023-03-01T00:10:07;103070.50;;;2.80
13304;BMP280;6720;51.958;4.540;2023-03-01T00:12:33;103071.41;;;2.81
13304;BMP280;6720;51.958;4.540;2023-03-01T00:14:58;103068.00;;;2.82
13304;BMP280;6720;51.958;4.540;2023-03-01T00:17:24;103070.34;;;2.95
13304;BMP280;6720;51.958;4.540;2023-03-01T00:19:49;103070.50;;;2.98
13304;BMP280;6720;51.958;4.540;2023-03-01T00:22:14;103060.00;;;2.95
13304;BMP280;6720;51.958;4.540;2023-03-01T00:24:40;103056.16;;;2.87
13304;BMP280;6720;51.958;4.540;2023-03-01T00:27:05;103062.97;;;2.85
13304;BMP280;6720;51.958;4.540;2023-03-01T00:29:31;103056.81;;;2.83
13304;BMP280;6720;51.958;4.540;2023-03-01T00:31:56;103041.53;;;2.70
13304;BMP280;6720;51.958;4.540;2023-03-01T00:34:21;103054.53;;;2.89
13304;BMP280;6720;51.958;4.540;2023-03-01T00:36:47;103049.06;;;2.83
13304;BMP280;6720;51.958;4.540;2023-03-01T00:39:14;103050.81;;;2.84
13304;BMP280;6720;51.958;4.540;2023-03-01T00:41:40;103055.88;;;2.81
13304;BMP280;6720;51.958;4.540;2023-03-01T00:44:20;103062.50;;;2.76
13304;BMP280;6720;51.958;4.540;2023-03-01T00:46:46;103057.03;;;2.70
13304;BMP280;6720;51.958;4.540;2023-03-01T00:49:11;103061.31;;;2.69
13304;BMP280;6720;51.958;4.540;2023-03-01T00:51:37;103051.13;;;2.72
13304;BMP280;6720;51.958;4.540;2023-03-01T00:54:04;103053.63;;;2.71
13304;BMP280;6720;51.958;4.540;2023-03-01T00:56:30;103059.63;;;2.70
13304;BMP280;6720;51.958;4.540;2023-03-01T00:58:56;103054.13;;;2.64
13304;BMP280;6720;51.958;4.540;2023-03-01T01:01:25;103060.13;;;2.63
13304;BMP280;6720;51.958;4.540;2023-03-01T01:03:56;103052.84;;;2.56
13304;BMP280;6720;51.958;4.540;2023-03-01T01:06:27;103050.28;;;2.56
13304;BMP280;6720;51.958;4.540;2023-03-01T01:08:53;103047.53;;;2.53
13304;BMP280;6720;51.958;4.540;2023-03-01T01:11:19;103053.59;;;2.53
13304;BMP280;6720;51.958;4.540;2023-03-01T01:13:46;103054.47;;;2.54
13304;BMP280;6720;51.958;4.540;2023-03-01T01:16:12;103057.69;;;2.50
13304;BMP280;6720;51.958;4.540;2023-03-01T01:18:38;103049.56;;;2.42
13304;BMP280;6720;51.958;4.540;2023-03-01T01:21:15;103046.91;;;2.41
13304;BMP280;6720;51.958;4.540;2023-03-01T01:23:42;103039.97;;;2.40
13304;BMP280;6720;51.958;4.540;2023-03-01T01:26:16;103047.84;;;2.43
13304;BMP280;6720;51.958;4.540;2023-03-01T01:28:41;103048.66;;;2.42
13304;BMP280;6720;51.958;4.540;2023-03-01T01:31:07;103035.13;;;2.30
13304;BMP280;6720;51.958;4.540;2023-03-01T01:33:33;103030.13;;;2.33
13304;BMP280;6720;51.958;4.540;2023-03-01T01:35:58;103025.75;;;2.32
13304;BMP280;6720;51.958;4.540;2023-03-01T01:38:24;103020.44;;;2.29
13304;BMP280;6720;51.958;4.540;2023-03-01T01:40:50;103014.94;;;2.23
13304;BMP280;6720;51.958;4.540;2023-03-01T01:43:28;103011.41;;;2.21
13304;BMP280;6720;51.958;4.540;2023-03-01T01:46:21;103006.25;;;2.21
13304;BMP280;6720;51.958;4.540;2023-03-01T01:48:50;102997.19;;;2.13
13304;BMP280;6720;51.958;4.540;2023-03-01T01:51:25;102999.75;;;2.13
13304;BMP280;6720;51.958;4.540;2023-03-01T01:53:56;103005.00;;;2.14
13304;BMP280;6720;51.958;4.540;2023-03-01T01:56:24;102955.59;;;1.91
13304;BMP280;6720;51.958;4.540;2023-03-01T01:58:50;102998.81;;;2.11
13304;BMP280;6720;51.958;4.540;2023-03-01T02:01:16;102998.66;;;2.08
13304;BMP280;6720;51.958;4.540;2023-03-01T02:03:42;102995.25;;;2.09
13304;BMP280;6720;51.958;4.540;2023-03-01T02:06:37;102993.31;;;2.05
13304;BMP280;6720;51.958;4.540;2023-03-01T02:09:08;102995.91;;;2.05
13304;BMP280;6720;51.958;4.540;2023-03-01T02:11:36;102989.78;;;2.03
13304;BMP280;6720;51.958;4.540;2023-03-01T02:14:02;102986.06;;;1.98
13304;BMP280;6720;51.958;4.540;2023-03-01T02:16:28;102996.34;;;1.96
13304;BMP280;6720;51.958;4.540;2023-03-01T02:18:54;102979.03;;;1.95
13304;BMP280;6720;51.958;4.540;2023-03-01T02:24:20;102984.63;;;2.03
13304;BMP280;6720;51.958;4.540;2023-03-01T02:26:50;102967.34;;;2.02
13304;BMP280;6720;51.958;4.540;2023-03-01T02:29:16;102968.38;;;2.05
13304;BMP280;6720;51.958;4.540;2023-03-01T02:31:42;102984.91;;;2.09
13304;BMP280;6720;51.958;4.540;2023-03-01T02:34:11;102970.00;;;2.03
13304;BMP280;6720;51.958;4.540;2023-03-01T02:36:54;102973.94;;;2.13
13304;BMP280;6720;51.958;4.540;2023-03-01T02:39:25;102980.91;;;2.14
13304;BMP280;6720;51.958;4.540;2023-03-01T02:41:53;102978.22;;;2.12
13304;BMP280;6720;51.958;4.540;2023-03-01T02:44:19;102979.91;;;2.12
13304;BMP280;6720;51.958;4.540;2023-03-01T02:46:48;102986.72;;;2.10
13304;BMP280;6720;51.958;4.540;2023-03-01T02:49:30;102969.75;;;2.15
13304;BMP280;6720;51.958;4.540;2023-03-01T02:55:01;102964.91;;;2.05
13304;BMP280;6720;51.958;4.540;2023-03-01T02:57:29;102955.63;;;2.08
13304;BMP280;6720;51.958;4.540;2023-03-01T02:59:57;102950.38;;;2.07
13304;BMP280;6720;51.958;4.540;2023-03-01T03:02:27;102954.72;;;2.08
13304;BMP280;6720;51.958;4.540;2023-03-01T03:07:28;102965.88;;;2.07
13304;BMP280;6720;51.958;4.540;2023-03-01T03:09:53;102956.50;;;2.09
13304;BMP280;6720;51.958;4.540;2023-03-01T03:12:19;102944.91;;;2.01
13304;BMP280;6720;51.958;4.540;2023-03-01T03:14:44;102952.63;;;2.01
13304;BMP280;6720;51.958;4.540;2023-03-01T03:17:09;102949.91;;;1.98
13304;BMP280;6720;51.958;4.540;2023-03-01T03:19:35;102949.91;;;1.98
13304;BMP280;6720;51.958;4.540;2023-03-01T03:22:28;102952.19;;;1.92
13304;BMP280;6720;51.958;4.540;2023-03-01T03:25:32;102953.50;;;1.84
13304;BMP280;6720;51.958;4.540;2023-03-01T03:28:28;102943.16;;;1.84
13304;BMP280;6720;51.958;4.540;2023-03-01T03:34:59;102916.47;;;1.67
13304;BMP280;6720;51.958;4.540;2023-03-01T03:37:24;102936.78;;;1.77
13304;BMP280;6720;51.958;4.540;2023-03-01T03:40:09;102941.06;;;1.77
13304;BMP280;6720;51.958;4.540;2023-03-01T03:42:40;102947.34;;;1.82
13304;BMP280;6720;51.958;4.540;2023-03-01T03:45:06;102945.41;;;1.78
13304;BMP280;6720;51.958;4.540;2023-03-01T03:47:32;102936.06;;;1.80
13304;BMP280;6720;51.958;4.540;2023-03-01T03:49:57;102938.47;;;1.77
13304;BMP280;6720;51.958;4.540;2023-03-01T03:52:23;102946.31;;;1.78
13304;BMP280;6720;51.958;4.540;2023-03-01T03:54:48;102937.66;;;1.78
13304;BMP280;6720;51.958;4.540;2023-03-01T03:57:13;102938.47;;;1.77
13304;BMP280;6720;51.958;4.540;2023-03-01T03:59:39;102934.06;;;1.74
13304;BMP280;6720;51.958;4.540;2023-03-01T04:02:04;102940.97;;;1.75
13304;BMP280;6720;51.958;4.540;2023-03-01T04:04:30;102922.34;;;1.65
13304;BMP280;6720;51.958;4.540;2023-03-01T04:06:56;102938.97;;;1.70
13304;BMP280;6720;51.958;4.540;2023-03-01T04:09:21;102930.88;;;1.64
13304;BMP280;6720;51.958;4.540;2023-03-01T04:11:46;102933.97;;;1.57
13304;BMP280;6720;51.958;4.540;2023-03-01T04:14:12;102936.59;;;1.58
13304;BMP280;6720;51.958;4.540;2023-03-01T04:16:37;102932.75;;;1.50
13304;BMP280;6720;51.958;4.540;2023-03-01T04:19:02;102932.81;;;1.52
13304;BMP280;6720;51.958;4.540;2023-03-01T04:21:28;102935.41;;;1.52
13304;BMP280;6720;51.958;4.540;2023-03-01T04:23:53;102936.31;;;1.52
13304;BMP280;6720;51.958;4.540;2023-03-01T04:26:19;102930.06;;;1.49
13304;BMP280;6720;51.958;4.540;2023-03-01T04:28:45;102940.41;;;1.49
13304;BMP280;6720;51.958;4.540;2023-03-01T04:31:14;102937.03;;;1.50
13304;BMP280;6720;51.958;4.540;2023-03-01T04:33:42;102928.97;;;1.44
13304;BMP280;6720;51.958;4.540;2023-03-01T04:36:11;102935.75;;;1.42
13304;BMP280;6720;51.958;4.540;2023-03-01T04:38:37;102921.59;;;1.35
13304;BMP280;6720;51.958;4.540;2023-03-01T04:41:08;102925.09;;;1.36
13304;BMP280;6720;51.958;4.540;2023-03-01T04:43:34;102920.41;;;1.29
13304;BMP280;6720;51.958;4.540;2023-03-01T04:46:07;102925.47;;;1.27
13304;BMP280;6720;51.958;4.540;2023-03-01T04:48:35;102916.69;;;1.24
13304;BMP280;6720;51.958;4.540;2023-03-01T04:51:01;102911.38;;;1.21
13304;BMP280;6720;51.958;4.540;2023-03-01T04:53:27;102916.28;;;1.16
13304;BMP280;6720;51.958;4.540;2023-03-01T04:55:56;102902.88;;;1.07
13304;BMP280;6720;51.958;4.540;2023-03-01T04:58:23;102906.41;;;1.09
13304;BMP280;6720;51.958;4.540;2023-03-01T05:00:49;102906.97;;;1.04
13304;BMP280;6720;51.958;4.540;2023-03-01T05:03:14;102898.28;;;1.02
13304;BMP280;6720;51.958;4.540;2023-03-01T05:05:44;102905.03;;;1.00
13304;BMP280;6720;51.958;4.540;2023-03-01T05:08:10;102897.94;;;0.96
13304;BMP280;6720;51.958;4.540;2023-03-01T05:10:43;102886.03;;;0.98
13304;BMP280;6720;51.958;4.540;2023-03-01T05:13:09;102896.16;;;0.95
13304;BMP280;6720;51.958;4.540;2023-03-01T05:15:35;102886.50;;;0.91
13304;BMP280;6720;51.958;4.540;2023-03-01T05:18:01;102896.00;;;0.92
13304;BMP280;6720;51.958;4.540;2023-03-01T05:20:28;102881.81;;;0.84
13304;BMP280;6720;51.958;4.540;2023-03-01T05:22:56;102870.09;;;0.74
13304;BMP280;6720;51.958;4.540;2023-03-01T05:25:23;102890.53;;;0.86
13304;BMP280;6720;51.958;4.540;2023-03-01T05:27:49;102889.53;;;0.84
13304;BMP280;6720;51.958;4.540;2023-03-01T05:30:14;102878.09;;;0.79
13304;BMP280;6720;51.958;4.540;2023-03-01T05:32:45;102878.91;;;0.78
13304;BMP280;6720;51.958;4.540;2023-03-01T05:35:13;102869.38;;;0.77
13304;BMP280;6720;51.958;4.540;2023-03-01T05:37:47;102862.09;;;0.70
13304;BMP280;6720;51.958;4.540;2023-03-01T05:40:14;102862.09;;;0.70
13304;BMP280;6720;51.958;4.540;2023-03-01T05:43:07;102850.59;;;0.63
13304;BMP280;6720;51.958;4.540;2023-03-01T05:45:32;102848.81;;;0.62
13304;BMP280;6720;51.958;4.540;2023-03-01T05:47:58;102855.00;;;0.66
13304;BMP280;6720;51.958;4.540;2023-03-01T05:50:26;102850.59;;;0.63
13304;BMP280;6720;51.958;4.540;2023-03-01T05:53:03;102848.91;;;0.64
13304;BMP280;6720;51.958;4.540;2023-03-01T05:55:31;102833.91;;;0.57
13304;BMP280;6720;51.958;4.540;2023-03-01T05:58:02;102859.22;;;0.64
13304;BMP280;6720;51.958;4.540;2023-03-01T06:00:29;102857.53;;;0.64
13304;BMP280;6720;51.958;4.540;2023-03-01T06:02:55;102857.84;;;0.70
13304;BMP280;6720;51.958;4.540;2023-03-01T06:05:21;102853.44;;;0.68
13304;BMP280;6720;51.958;4.540;2023-03-01T06:07:47;102846.50;;;0.67
13304;BMP280;6720;51.958;4.540;2023-03-01T06:10:13;102852.16;;;0.76
13304;BMP280;6720;51.958;4.540;2023-03-01T06:12:40;102844.00;;;0.68
13304;BMP280;6720;51.958;4.540;2023-03-01T06:15:07;102851.81;;;0.70
13304;BMP280;6720;51.958;4.540;2023-03-01T06:17:36;102855.19;;;0.69
13304;BMP280;6720;51.958;4.540;2023-03-01T06:22:35;102844.88;;;0.69
13304;BMP280;6720;51.958;4.540;2023-03-01T06:25:00;102862.28;;;0.73
13304;BMP280;6720;51.958;4.540;2023-03-01T06:27:26;102870.09;;;0.74
13304;BMP280;6720;51.958;4.540;2023-03-01T06:29:52;102867.78;;;0.79
13304;BMP280;6720;51.958;4.540;2023-03-01T06:32:17;102862.81;;;0.82
13304;BMP280;6720;51.958;4.540;2023-03-01T06:34:42;102876.47;;;0.81
13304;BMP280;6720;51.958;4.540;2023-03-01T06:37:08;102866.81;;;0.77
13304;BMP280;6720;51.958;4.540;2023-03-01T06:39:34;102863.59;;;0.81
13304;BMP280;6720;51.958;4.540;2023-03-01T06:41:59;102873.44;;;0.88
13304;BMP280;6720;51.958;4.540;2023-03-01T06:44:25;102863.94;;;0.87
13304;BMP280;6720;51.958;4.540;2023-03-01T06:46:50;102865.53;;;0.85
13304;BMP280;6720;51.958;4.540;2023-03-01T06:49:16;102869.72;;;0.83
13304;BMP280;6720;51.958;4.540;2023-03-01T06:51:44;102870.69;;;0.85
13304;BMP280;6720;51.958;4.540;2023-03-01T06:54:10;102872.06;;;0.94
13304;BMP280;6720;51.958;4.540;2023-03-01T06:56:35;102862.81;;;0.98
13304;BMP280;6720;51.958;4.540;2023-03-01T06:59:01;102863.78;;;1.00
13304;BMP280;6720;51.958;4.540;2023-03-01T07:01:28;102867.44;;;1.03
13304;BMP280;6720;51.958;4.540;2023-03-01T07:03:54;102875.34;;;1.06
13304;BMP280;6720;51.958;4.540;2023-03-01T07:06:20;102873.97;;;1.13
13304;BMP280;6720;51.958;4.540;2023-03-01T07:08:45;102869.84;;;1.16
13304;BMP280;6720;51.958;4.540;2023-03-01T07:11:11;102859.13;;;1.09
13304;BMP280;6720;51.958;4.540;2023-03-01T07:13:36;102870.25;;;1.24
13304;BMP280;6720;51.958;4.540;2023-03-01T07:16:01;102874.13;;;1.32
13304;BMP280;6720;51.958;4.540;2023-03-01T07:18:27;102876.53;;;1.45
13304;BMP280;6720;51.958;4.540;2023-03-01T07:20:52;102869.38;;;1.55
13304;BMP280;6720;51.958;4.540;2023-03-01T07:23:18;102863.75;;;1.80
13304;BMP280;6720;51.958;4.540;2023-03-01T07:25:43;102867.38;;;1.83
13304;BMP280;6720;51.958;4.540;2023-03-01T07:28:09;102855.47;;;2.20
13304;BMP280;6720;51.958;4.540;2023-03-01T07:30:34;102864.59;;;2.84
13304;BMP280;6720;51.958;4.540;2023-03-01T07:32:59;102861.94;;;3.19
13304;BMP280;6720;51.958;4.540;2023-03-01T07:35:26;102861.56;;;3.11
13304;BMP280;6720;51.958;4.540;2023-03-01T07:37:52;102876.16;;;2.92
13304;BMP280;6720;51.958;4.540;2023-03-01T07:40:17;102873.47;;;2.89
13304;BMP280;6720;51.958;4.540;2023-03-01T07:42:43;102861.28;;;2.69
13304;BMP280;6720;51.958;4.540;2023-03-01T07:45:09;102869.72;;;2.65
13304;BMP280;6720;51.958;4.540;2023-03-01T07:47:35;102854.66;;;2.39
13304;BMP280;6720;51.958;4.540;2023-03-01T07:50:00;102874.91;;;2.47
13304;BMP280;6720;51.958;4.540;2023-03-01T07:52:29;102872.53;;;2.34
13304;BMP280;6720;51.958;4.540;2023-03-01T07:54:54;102854.81;;;2.24
13304;BMP280;6720;51.958;4.540;2023-03-01T07:57:20;102858.13;;;2.22
13304;BMP280;6720;51.958;4.540;2023-03-01T07:59:45;102862.47;;;2.23
13304;BMP280;6720;51.958;4.540;2023-03-01T08:02:11;102859.91;;;2.23
13304;BMP280;6720;51.958;4.540;2023-03-01T08:04:36;102832.56;;;2.10
13304;BMP280;6720;51.958;4.540;2023-03-01T08:07:04;102868.91;;;2.31
13304;BMP280;6720;51.958;4.540;2023-03-01T08:09:30;102863.91;;;2.34
13304;BMP280;6720;51.958;4.540;2023-03-01T08:11:56;102864.03;;;2.37
13304;BMP280;6720;51.958;4.540;2023-03-01T08:14:24;102864.22;;;2.40
13304;BMP280;6720;51.958;4.540;2023-03-01T08:16:50;102858.13;;;2.39
13304;BMP280;6720;51.958;4.540;2023-03-01T08:19:16;102858.28;;;2.60
13304;BMP280;6720;51.958;4.540;2023-03-01T08:21:42;102837.75;;;2.63
13304;BMP280;6720;51.958;4.540;2023-03-01T08:24:08;102860.19;;;3.00
13304;BMP280;6720;51.958;4.540;2023-03-01T08:26:35;102860.56;;;3.08
13304;BMP280;6720;51.958;4.540;2023-03-01T08:29:03;102817.09;;;3.01
13304;BMP280;6720;51.958;4.540;2023-03-01T08:31:34;102854.41;;;3.25
13304;BMP280;6720;51.958;4.540;2023-03-01T08:34:05;102850.13;;;3.25
13304;BMP280;6720;51.958;4.540;2023-03-01T08:36:40;102858.22;;;3.33
13304;BMP280;6720;51.958;4.540;2023-03-01T08:39:08;102834.75;;;3.28
13304;BMP280;6720;51.958;4.540;2023-03-01T08:41:34;102847.63;;;3.46
13304;BMP280;6720;51.958;4.540;2023-03-01T08:44:00;102857.81;;;3.62
13304;BMP280;6720;51.958;4.540;2023-03-01T08:46:31;102847.72;;;3.68
13304;BMP280;6720;51.958;4.540;2023-03-01T08:48:57;102853.16;;;3.74
13304;BMP280;6720;51.958;4.540;2023-03-01T08:51:24;102854.91;;;3.75
13304;BMP280;6720;51.958;4.540;2023-03-01T08:53:50;102842.38;;;3.84
13304;BMP280;6720;51.958;4.540;2023-03-01T08:56:16;102855.53;;;4.09
13304;BMP280;6720;51.958;4.540;2023-03-01T08:58:44;102861.66;;;4.32
13304;BMP280;6720;51.958;4.540;2023-03-01T09:01:12;102860.31;;;4.41
13304;BMP280;6720;51.958;4.540;2023-03-01T09:03:38;102844.25;;;4.50
13304;BMP280;6720;51.958;4.540;2023-03-01T09:06:05;102848.94;;;4.82
13304;BMP280;6720;51.958;4.540;2023-03-01T09:08:37;102849.66;;;5.00
13304;BMP280;6720;51.958;4.540;2023-03-01T09:11:04;102851.94;;;5.14
13304;BMP280;6720;51.958;4.540;2023-03-01T09:13:30;102849.44;;;5.17
13304;BMP280;6720;51.958;4.540;2023-03-01T09:16:00;102844.09;;;5.36
13304;BMP280;6720;51.958;4.540;2023-03-01T09:18:27;102845.72;;;5.56
13304;BMP280;6720;51.958;4.540;2023-03-01T09:20:52;102841.56;;;5.85
13304;BMP280;6720;51.958;4.540;2023-03-01T09:23:20;102846.59;;;6.05
13304;BMP280;6720;51.958;4.540;2023-03-01T09:25:46;102839.94;;;6.13
13304;BMP280;6720;51.958;4.540;2023-03-01T09:28:11;102841.00;;;6.46
13304;BMP280;6720;51.958;4.540;2023-03-01T09:30:37;102820.38;;;6.80
13304;BMP280;6720;51.958;4.540;2023-03-01T09:33:02;102830.78;;;7.08
13304;BMP280;6720;51.958;4.540;2023-03-01T09:35:28;102825.44;;;7.35
13304;BMP280;6720;51.958;4.540;2023-03-01T09:37:53;102829.41;;;7.52
13304;BMP280;6720;51.958;4.540;2023-03-01T09:40:22;102830.88;;;7.73
13304;BMP280;6720;51.958;4.540;2023-03-01T09:45:38;102832.16;;;8.22
13304;BMP280;6720;51.958;4.540;2023-03-01T09:48:12;102830.22;;;8.50
13304;BMP280;6720;51.958;4.540;2023-03-01T09:50:41;102821.78;;;8.60
13304;BMP280;6720;51.958;4.540;2023-03-01T09:53:15;102825.88;;;8.89
13304;BMP280;6720;51.958;4.540;2023-03-01T09:55:48;102825.28;;;9.01
13304;BMP280;6720;51.958;4.540;2023-03-01T10:00:59;102820.91;;;9.43
13304;BMP280;6720;51.958;4.540;2023-03-01T10:03:34;102812.34;;;9.50
13304;BMP280;6720;51.958;4.540;2023-03-01T10:06:20;102808.38;;;9.71
13304;BMP280;6720;51.958;4.540;2023-03-01T10:09:05;102787.72;;;9.86
13304;BMP280;6720;51.958;4.540;2023-03-01T10:11:40;102806.50;;;10.12
13304;BMP280;6720;51.958;4.540;2023-03-01T10:14:51;102808.34;;;10.19
13304;BMP280;6720;51.958;4.540;2023-03-01T10:16:57;102805.03;;;10.29
13304;BMP280;6720;51.958;4.540;2023-03-01T10:19:43;102800.94;;;10.47
13304;BMP280;6720;51.958;4.540;2023-03-01T10:22:19;102798.47;;;10.55
13304;BMP280;6720;51.958;4.540;2023-03-01T10:24:47;102796.13;;;10.77
13304;BMP280;6720;51.958;4.540;2023-03-01T10:27:23;102786.69;;;10.88
13304;BMP280;6720;51.958;4.540;2023-03-01T10:32:23;102786.03;;;11.06
13304;BMP280;6720;51.958;4.540;2023-03-01T10:34:48;102753.22;;;10.68
13304;BMP280;6720;51.958;4.540;2023-03-01T10:37:19;102785.00;;;9.82
13304;BMP280;6720;51.958;4.540;2023-03-01T10:40:04;102772.25;;;10.55
13304;BMP280;6720;51.958;4.540;2023-03-01T10:42:38;102785.56;;;10.70
13304;BMP280;6720;51.958;4.540;2023-03-01T10:45:37;102768.75;;;11.23
13304;BMP280;6720;51.958;4.540;2023-03-01T10:50:28;102771.97;;;11.77
13304;BMP280;6720;51.958;4.540;2023-03-01T10:53:02;102769.34;;;11.77
13304;BMP280;6720;51.958;4.540;2023-03-01T10:55:35;102759.78;;;11.81
13304;BMP280;6720;51.958;4.540;2023-03-01T11:03:14;102753.06;;;12.17
13304;BMP280;6720;51.958;4.540;2023-03-01T11:11:26;102737.25;;;12.14
13304;BMP280;6720;51.958;4.540;2023-03-01T11:14:31;102727.44;;;11.85
13304;BMP280;6720;51.958;4.540;2023-03-01T11:16:59;102737.25;;;12.11
13304;BMP280;6720;51.958;4.540;2023-03-01T11:19:24;102726.81;;;12.25
13304;BMP280;6720;51.958;4.540;2023-03-01T11:21:55;102720.41;;;11.84
13304;BMP280;6720;51.958;4.540;2023-03-01T11:24:36;102711.84;;;12.07
13304;BMP280;6720;51.958;4.540;2023-03-01T11:27:18;102715.25;;;11.99
13304;BMP280;6720;51.958;4.540;2023-03-01T11:30:02;102720.91;;;11.45
13304;BMP280;6720;51.958;4.540;2023-03-01T11:32:36;102714.50;;;12.13
13304;BMP280;6720;51.958;4.540;2023-03-01T11:35:16;102689.22;;;12.30
13304;BMP280;6720;51.958;4.540;2023-03-01T11:40:37;102694.72;;;12.89
13304;BMP280;6720;51.958;4.540;2023-03-01T11:46:27;102682.59;;;13.25
13304;BMP280;6720;51.958;4.540;2023-03-01T11:51:42;102680.00;;;13.52
13304;BMP280;6720;51.958;4.540;2023-03-01T11:57:03;102683.47;;;13.51
13304;BMP280;6720;51.958;4.540;2023-03-01T12:05:21;102668.56;;;13.82
13304;BMP280;6720;51.958;4.540;2023-03-01T12:11:09;102678.22;;;13.66
13304;BMP280;6720;51.958;4.540;2023-03-01T12:22:16;102650.06;;;14.22
13304;BMP280;6720;51.958;4.540;2023-03-01T12:28:02;102636.78;;;14.51
13304;BMP280;6720;51.958;4.540;2023-03-01T12:33:46;102628.09;;;14.26
13304;BMP280;6720;51.958;4.540;2023-03-01T12:39:17;102623.66;;;14.37
13304;BMP280;6720;51.958;4.540;2023-03-01T12:47:49;102619.41;;;13.73
13304;BMP280;6720;51.958;4.540;2023-03-01T12:50:23;102619.41;;;13.84
13304;BMP280;6720;51.958;4.540;2023-03-01T12:52:58;102626.41;;;12.96
13304;BMP280;6720;51.958;4.540;2023-03-01T12:55:37;102620.31;;;13.60
13304;BMP280;6720;51.958;4.540;2023-03-01T12:58:21;102622.06;;;13.75
13304;BMP280;6720;51.958;4.540;2023-03-01T13:12:42;102609.78;;;13.78
13304;BMP280;6720;51.958;4.540;2023-03-01T13:15:25;102607.03;;;14.16
13304;BMP280;6720;51.958;4.540;2023-03-01T13:17:58;102616.69;;;14.27
13304;BMP280;6720;51.958;4.540;2023-03-01T13:20:34;102620.88;;;14.64
13304;BMP280;6720;51.958;4.540;2023-03-01T13:23:24;102609.56;;;14.50
13304;BMP280;6720;51.958;4.540;2023-03-01T13:26:07;102602.41;;;14.70
13304;BMP280;6720;51.958;4.540;2023-03-01T13:46:48;102552.22;;;14.81
13304;BMP280;6720;51.958;4.540;2023-03-01T13:49:18;102551.75;;;14.05
13304;BMP280;6720;51.958;4.540;2023-03-01T13:51:48;102539.00;;;14.89
13304;BMP280;6720;51.958;4.540;2023-03-01T13:54:25;102532.56;;;15.21
13304;BMP280;6720;51.958;4.540;2023-03-01T13:56:51;102534.31;;;15.21
13304;BMP280;6720;51.958;4.540;2023-03-01T13:59:20;102520.53;;;14.92
13304;BMP280;6720;51.958;4.540;2023-03-01T14:01:57;102533.34;;;15.37
13304;BMP280;6720;51.958;4.540;2023-03-01T14:04:31;102528.44;;;15.81
13304;BMP280;6720;51.958;4.540;2023-03-01T14:07:18;102522.78;;;15.37
13304;BMP280;6720;51.958;4.540;2023-03-01T14:09:46;102524.19;;;15.71
13304;BMP280;6720;51.958;4.540;2023-03-01T14:18:04;102504.41;;;16.05
13304;BMP280;6720;51.958;4.540;2023-03-01T14:20:39;102505.28;;;16.04
13304;BMP280;6720;51.958;4.540;2023-03-01T14:23:13;102498.16;;;16.10
13304;BMP280;6720;51.958;4.540;2023-03-01T14:25:51;102496.28;;;16.20
13304;BMP280;6720;51.958;4.540;2023-03-01T14:28:21;102497.13;;;16.19
13304;BMP280;6720;51.958;4.540;2023-03-01T14:30:50;102490.50;;;15.88
13304;BMP280;6720;51.958;4.540;2023-03-01T14:33:24;102484.09;;;16.07
13304;BMP280;6720;51.958;4.540;2023-03-01T14:35:57;102482.59;;;15.86
13304;BMP280;6720;51.958;4.540;2023-03-01T14:38:36;102476.38;;;15.92
13304;BMP280;6720;51.958;4.540;2023-03-01T14:41:14;102464.75;;;15.31
13304;BMP280;6720;51.958;4.540;2023-03-01T14:43:46;102466.19;;;15.60
13304;BMP280;6720;51.958;4.540;2023-03-01T14:46:32;102455.75;;;15.53
13304;BMP280;6720;51.958;4.540;2023-03-01T14:49:03;102438.25;;;15.43
13304;BMP280;6720;51.958;4.540;2023-03-01T14:51:30;102460.19;;;15.48
13304;BMP280;6720;51.958;4.540;2023-03-01T14:53:56;102466.34;;;15.47
13304;BMP280;6720;51.958;4.540;2023-03-01T14:56:21;102457.94;;;15.06
13304;BMP280;6720;51.958;4.540;2023-03-01T14:58:58;102456.03;;;15.23
13304;BMP280;6720;51.958;4.540;2023-03-01T15:01:24;102448.16;;;15.17
13304;BMP280;6720;51.958;4.540;2023-03-01T15:03:49;102450.72;;;15.26
13304;BMP280;6720;51.958;4.540;2023-03-01T15:06:20;102440.22;;;15.20
13304;BMP280;6720;51.958;4.540;2023-03-01T15:08:56;102445.44;;;15.26
13304;BMP280;6720;51.958;4.540;2023-03-01T15:11:32;102435.81;;;15.23
13304;BMP280;6720;51.958;4.540;2023-03-01T15:13:58;102438.47;;;15.20
13304;BMP280;6720;51.958;4.540;2023-03-01T15:16:26;102420.91;;;15.18
13304;BMP280;6720;51.958;4.540;2023-03-01T15:19:05;102426.91;;;15.29
13304;BMP280;6720;51.958;4.540;2023-03-01T15:21:33;102424.25;;;15.32
13304;BMP280;6720;51.958;4.540;2023-03-01T15:24:08;102433.13;;;15.25
13304;BMP280;6720;51.958;4.540;2023-03-01T15:29:22;102429.56;;;15.29
13304;BMP280;6720;51.958;4.540;2023-03-01T15:31:57;102426.28;;;15.06
13304;BMP280;6720;51.958;4.540;2023-03-01T15:36:51;102415.00;;;15.73
13304;BMP280;6720;51.958;4.540;2023-03-01T15:41:55;102415.97;;;16.81
13304;BMP280;6720;51.958;4.540;2023-03-01T15:44:29;102420.44;;;17.26
13304;BMP280;6720;51.958;4.540;2023-03-01T15:46:55;102419.13;;;17.48
13304;BMP280;6720;51.958;4.540;2023-03-01T15:49:40;102424.72;;;17.32
13304;BMP280;6720;51.958;4.540;2023-03-01T15:52:13;102415.91;;;16.86
13304;BMP280;6720;51.958;4.540;2023-03-01T15:54:43;102430.19;;;16.20
13304;BMP280;6720;51.958;4.540;2023-03-01T15:57:13;102421.06;;;15.03
13304;BMP280;6720;51.958;4.540;2023-03-01T15:59:41;102400.66;;;14.21
13304;BMP280;6720;51.958;4.540;2023-03-01T16:02:12;102420.28;;;13.62
13304;BMP280;6720;51.958;4.540;2023-03-01T16:04:39;102420.22;;;13.72
13304;BMP280;6720;51.958;4.540;2023-03-01T16:07:04;102408.50;;;14.30
13304;BMP280;6720;51.958;4.540;2023-03-01T16:09:30;102409.47;;;15.19
13304;BMP280;6720;51.958;4.540;2023-03-01T16:11:55;102407.16;;;15.66
13304;BMP280;6720;51.958;4.540;2023-03-01T16:14:21;102404.13;;;15.93
13304;BMP280;6720;51.958;4.540;2023-03-01T16:16:47;102405.75;;;16.03
13304;BMP280;6720;51.958;4.540;2023-03-01T16:19:16;102384.84;;;15.88
13304;BMP280;6720;51.958;4.540;2023-03-01T16:21:42;102402.75;;;15.68
13304;BMP280;6720;51.958;4.540;2023-03-01T16:24:09;102387.69;;;14.99
13304;BMP280;6720;51.958;4.540;2023-03-01T16:26:35;102393.28;;;14.67
13304;BMP280;6720;51.958;4.540;2023-03-01T16:29:01;102395.06;;;14.63
13304;BMP280;6720;51.958;4.540;2023-03-01T16:31:26;102396.47;;;13.87
13304;BMP280;6720;51.958;4.540;2023-03-01T16:33:55;102401.13;;;13.25